Time;durP1;ratioP1;P1;durP2;ratioP2;P2;SDS_P1;SDS_P2;PMS_P1;PMS_P2;Temp;Humidity;BMP_temperature;BMP_pressure;BME280_temperature;BME280_humidity;BME280_pressure;Samples;Min_cycle;Max_cycle;Signal;HPM_P1;HPM_P2
2022/05/04 00:00:05;;;;;;;;;30.33;25.00;;;;;15.30;53.57;101533.06;5120493;27;46147;-51
2022/05/04 00:02:30;;;;;;;;;32.67;27.00;;;;;15.28;52.89;101527.84;5120085;27;45219;-45
2022/05/04 00:04:55;;;;;;;;;29.33;22.67;;;;;15.26;52.63;101526.31;5119422;27;45377;-53
2022/05/04 00:07:21;;;;;;;;;29.00;25.00;;;;;15.23;54.13;101528.31;5120913;27;45359;-54
2022/05/04 00:09:46;;;;;;;;;29.67;23.00;;;;;15.21;54.15;101524.97;5119296;27;46051;-51
2022/05/04 00:12:12;;;;;;;;;25.33;23.33;;;;;15.22;54.18;101528.47;5120379;27;45443;-43
2022/05/04 00:14:37;;;;;;;;;34.00;23.67;;;;;15.19;53.76;101518.06;5120477;27;45345;-53
2022/05/04 00:17:03;;;;;;;;;32.33;24.67;;;;;15.19;53.87;101515.38;5120700;27;45319;-44
2022/05/04 00:19:28;;;;;;;;;28.00;23.00;;;;;15.18;53.54;101514.53;5120186;27;45907;-42
2022/05/04 00:21:53;;;;;;;;;29.67;21.67;;;;;15.19;54.50;101521.56;5120341;27;45278;-43
2022/05/04 00:24:20;;;;;;;;;31.00;28.33;;;;;15.19;53.62;101512.69;5120196;27;45395;-53
2022/05/04 00:26:48;;;;;;;;;29.33;23.67;;;;;15.19;53.32;101505.50;5120655;27;45450;-44
2022/05/04 00:29:13;;;;;;;;;28.00;24.00;;;;;15.17;54.05;101518.22;5120110;27;46075;-45
2022/05/04 00:31:39;;;;;;;;;34.67;29.67;;;;;15.15;53.54;101514.00;5120154;27;45341;-46
2022/05/04 00:34:04;;;;;;;;;31.33;24.00;;;;;15.12;54.22;101507.13;5120097;27;45654;-41
2022/05/04 00:36:31;;;;;;;;;35.33;23.67;;;;;15.10;54.00;101519.84;5120365;27;45443;-55
2022/05/04 00:38:56;;;;;;;;;32.00;21.33;;;;;15.10;53.89;101509.13;5120037;27;46096;-48
2022/05/04 00:41:22;;;;;;;;;30.00;26.33;;;;;15.08;54.38;101505.75;5119480;27;45264;-51
2022/05/04 00:43:54;;;;;;;;;28.67;22.33;;;;;15.06;53.80;101498.88;5120047;27;45447;-41
2022/05/04 00:46:21;;;;;;;;;32.67;29.33;;;;;15.04;54.28;101500.88;5120253;27;45394;-53
2022/05/04 00:48:47;;;;;;;;;32.67;22.33;;;;;14.91;53.94;101479.84;5119616;27;47249;-44
2022/05/04 00:51:12;;;;;;;;;31.33;25.33;;;;;14.97;54.63;101495.31;5119627;27;45347;-50
2022/05/04 00:53:40;;;;;;;;;27.33;23.00;;;;;14.95;54.55;101490.09;5119917;27;45325;-41
2022/05/04 00:56:08;;;;;;;;;32.67;27.67;;;;;14.96;54.63;101496.31;5120169;27;45369;-43
2022/05/04 01:01:20;;;;;;;;;30.00;24.67;;;;;14.95;54.95;101499.97;5119656;27;45367;-43
2022/05/04 01:03:45;;;;;;;;;35.00;28.33;;;;;14.97;54.50;101498.00;5119233;27;45385;-51
2022/05/04 01:06:12;;;;;;;;;38.00;31.00;;;;;14.96;54.22;101497.16;5119638;27;45504;-44
2022/05/04 01:08:38;;;;;;;;;29.67;25.00;;;;;14.96;54.57;101509.72;5119352;27;47131;-55
2022/05/04 01:11:03;;;;;;;;;33.33;24.00;;;;;14.80;54.59;101483.66;5119300;27;45363;-48
2022/05/04 01:13:29;;;;;;;;;33.00;25.67;;;;;14.90;54.47;101497.75;5119607;27;45515;-41
2022/05/04 01:15:54;;;;;;;;;33.67;29.00;;;;;14.89;54.27;101497.94;5119878;27;45282;-47
2022/05/04 01:18:20;;;;;;;;;38.33;27.33;;;;;14.88;54.74;101496.25;5119338;27;46750;-48
2022/05/04 01:20:45;;;;;;;;;32.33;27.33;;;;;14.83;54.91;101494.06;5119225;27;45392;-40
2022/05/04 01:23:11;;;;;;;;;36.33;24.67;;;;;14.50;54.96;101438.56;5119430;27;45362;-45
2022/05/04 01:25:36;;;;;;;;;31.33;27.33;;;;;14.85;54.67;101509.97;5119793;27;45271;-40
2022/05/04 01:28:02;;;;;;;;;28.33;26.67;;;;;14.81;54.97;101505.91;5119143;27;45968;-46
2022/05/04 01:30:30;;;;;;;;;34.33;29.33;;;;;14.78;54.63;101512.41;5119280;27;45246;-48
2022/05/04 01:32:55;;;;;;;;;30.67;26.67;;;;;14.73;54.95;101512.03;5119202;27;45287;-40
2022/05/04 01:35:20;;;;;;;;;32.67;25.67;;;;;14.70;54.63;101499.78;5119042;27;45449;-43
2022/05/04 01:37:46;;;;;;;;;31.33;28.00;;;;;14.74;54.93;101511.03;5119141;27;45263;-45
2022/05/04 01:40:11;;;;;;;;;34.67;27.67;;;;;14.62;54.94;101494.38;5118951;27;45464;-43
2022/05/04 01:42:37;;;;;;;;;31.67;25.00;;;;;14.71;54.56;101506.84;5118913;27;45306;-41
2022/05/04 01:45:04;;;;;;;;;39.67;32.67;;;;;14.70;55.05;101504.31;5119164;27;45381;-49
2022/05/04 01:47:30;;;;;;;;;25.00;24.50;;;;;14.66;54.91;101501.13;5117770;27;45456;-49
2022/05/04 01:49:56;;;;;;;;;32.67;27.00;;;;;14.52;55.25;101482.91;5118546;27;45369;-52
2022/05/04 01:52:21;;;;;;;;;39.50;28.75;;;;;14.62;54.81;101501.56;5118960;27;45435;-48
2022/05/04 01:54:46;;;;;;;;;38.33;30.67;;;;;14.61;55.38;101505.22;5118960;27;45476;-42
2022/05/04 01:57:12;;;;;;;;;37.33;28.67;;;;;14.58;55.39;101503.72;5118683;27;45226;-41
2022/05/04 01:59:37;;;;;;;;;35.33;27.00;;;;;14.61;54.88;101515.94;5118247;27;45306;-42
2022/05/04 02:02:07;;;;;;;;;37.67;27.00;;;;;14.60;54.55;101508.91;5119085;27;45248;-41
2022/05/04 02:04:32;;;;;;;;;34.67;29.67;;;;;14.56;55.07;101503.03;5119101;27;45354;-41
2022/05/04 02:06:58;;;;;;;;;26.33;23.33;;;;;14.53;54.73;101507.84;5118225;27;46336;-40
2022/05/04 02:09:23;;;;;;;;;28.00;22.33;;;;;14.50;55.30;101502.81;5118719;27;45377;-41
2022/05/04 02:11:49;;;;;;;;;33.33;26.67;;;;;14.49;55.09;101515.34;5118373;27;45322;-40
2022/05/04 02:14:14;;;;;;;;;43.25;30.75;;;;;14.49;55.58;101507.31;5118741;27;45398;-45
2022/05/04 02:16:39;;;;;;;;;32.00;26.00;;;;;14.44;55.74;101505.06;5117419;27;46007;-40
2022/05/04 02:19:05;;;;;;;;;39.00;31.67;;;;;14.45;55.89;101514.78;5118458;27;45309;-41
2022/05/04 02:21:30;;;;;;;;;31.00;24.00;;;;;14.39;55.20;101501.16;5118335;27;45584;-42
2022/05/04 02:23:55;;;;;;;;;39.25;28.50;;;;;14.43;55.63;101514.09;5118623;27;45429;-40
2022/05/04 02:26:21;;;;;;;;;37.33;29.00;;;;;14.42;55.42;101507.06;5118367;27;46060;-40
2022/05/04 02:28:46;;;;;;;;;33.33;26.00;;;;;14.42;56.01;101506.22;5118361;27;45416;-39
2022/05/04 02:31:12;;;;;;;;;28.67;23.67;;;;;14.41;55.53;101499.16;5118424;27;45389;-40
2022/05/04 02:33:37;;;;;;;;;30.25;26.50;;;;;14.37;55.83;101497.81;5100109;27;45509;-40
2022/05/04 02:38:48;;;;;;;;;28.67;26.33;;;;;14.35;55.38;101492.59;5118160;27;45317;-40
2022/05/04 02:41:13;;;;;;;;;37.50;29.75;;;;;14.31;55.91;101495.72;5118385;27;45351;-40
2022/05/04 02:43:38;;;;;;;;;49.75;32.50;;;;;14.26;55.99;101490.84;5118416;27;45439;-40
2022/05/04 02:46:18;;;;;;;;;33.25;25.00;;;;;14.26;55.30;101495.34;5117910;27;46102;-42
2022/05/04 02:48:44;;;;;;;;;37.25;27.25;;;;;14.24;56.31;101503.50;5118121;27;45299;-40
2022/05/04 02:51:09;;;;;;;;;33.75;27.00;;;;;14.23;56.36;101491.97;5117658;27;45445;-40
2022/05/04 02:53:35;;;;;;;;;32.50;28.25;;;;;14.23;56.31;101500.00;5118263;27;45391;-40
2022/05/04 02:56:01;;;;;;;;;36.00;27.50;;;;;14.22;56.16;101484.94;5117923;27;45953;-39
2022/05/04 02:58:27;;;;;;;;;44.50;32.50;;;;;14.23;56.01;101489.28;5117764;27;45423;-40
2022/05/04 03:00:52;;;;;;;;;37.75;30.00;;;;;14.22;55.96;101481.44;5117970;27;45290;-41
2022/05/04 03:03:18;;;;;;;;;32.00;31.00;;;;;14.20;56.49;101480.75;5099563;27;45510;-41
2022/05/04 03:05:43;;;;;;;;;39.75;28.25;;;;;14.18;56.15;101482.72;5117992;27;45261;-43
2022/05/04 03:08:09;;;;;;;;;43.75;32.25;;;;;14.17;55.89;101479.22;5117757;27;45441;-42
2022/05/04 03:11:54;;;;;;;;;42.25;32.50;;;;;14.15;56.40;101488.38;5118056;27;45355;-40
2022/05/04 03:13:20;;;;;;;;;31.50;25.75;;;;;14.13;56.51;101474.31;5117714;27;45495;-41
2022/05/04 03:15:45;;;;;;;;;39.00;27.00;;;;;14.15;56.54;101478.50;5116455;27;46179;-41
2022/05/04 03:18:11;;;;;;;;;34.75;28.00;;;;;14.13;56.17;101483.19;5117751;27;45355;-41
2022/05/04 03:20:36;;;;;;;;;27.50;26.50;;;;;14.12;56.30;101484.19;5118046;27;45823;-41
2022/05/04 03:23:02;;;;;;;;;35.25;21.25;;;;;14.09;56.67;101479.13;5118060;27;45362;-41
2022/05/04 03:25:27;;;;;;;;;35.25;26.75;;;;;14.09;56.85;101473.78;5117836;27;46061;-41
2022/05/04 03:27:52;;;;;;;;;38.75;27.50;;;;;14.06;56.05;101476.75;5120070;27;45220;-47
2022/05/04 03:30:18;;;;;;;;;39.25;30.00;;;;;14.06;56.38;101482.09;5119449;27;45431;-41
2022/05/04 03:32:43;;;;;;;;;36.75;29.00;;;;;14.07;56.55;101473.06;5121669;27;45507;-43
2022/05/04 03:35:09;;;;;;;;;31.75;27.25;;;;;14.04;56.08;101472.56;5121313;27;45302;-40
2022/05/04 03:37:34;;;;;;;;;36.75;28.25;;;;;14.02;56.36;101478.03;5121024;27;45285;-56
2022/05/04 03:39:59;;;;;;;;;35.75;26.75;;;;;14.03;56.57;101469.06;5121344;27;45236;-44
2022/05/04 03:42:25;;;;;;;;;34.75;27.50;;;;;14.00;56.02;101480.03;5121215;27;45300;-54
2022/05/04 03:44:50;;;;;;;;;37.75;31.25;;;;;13.97;56.50;101475.00;5120862;27;47022;-45
2022/05/04 03:47:16;;;;;;;;;34.25;28.50;;;;;13.90;56.44;101460.53;5120795;27;45214;-44
2022/05/04 03:49:41;;;;;;;;;40.75;28.50;;;;;13.96;56.38;101474.16;5120906;27;45345;-43
2022/05/04 03:52:07;;;;;;;;;35.00;28.00;;;;;13.94;56.92;101470.78;5101760;27;45411;-45
2022/05/04 03:54:33;;;;;;;;;44.50;29.50;;;;;13.94;56.17;101472.59;5120661;27;46111;-43
2022/05/04 03:56:58;;;;;;;;;39.25;32.75;;;;;13.89;56.47;101470.38;5120652;27;45322;-52
2022/05/04 03:59:23;;;;;;;;;34.75;25.00;;;;;13.90;56.17;101473.91;5102192;27;45640;-54
2022/05/04 04:01:49;;;;;;;;;35.25;27.00;;;;;13.87;56.94;101469.72;5120890;27;45405;-53
2022/05/04 04:04:14;;;;;;;;;34.50;25.25;;;;;13.83;56.65;101479.03;5120525;27;46264;-39
2022/05/04 04:06:39;;;;;;;;;39.25;26.00;;;;;13.84;56.77;101478.03;5119947;27;45384;-41
2022/05/04 04:09:05;;;;;;;;;37.00;25.75;;;;;13.82;56.23;101481.81;5120521;27;45566;-47
2022/05/04 04:11:31;;;;;;;;;47.75;32.00;;;;;13.79;57.18;101477.63;5120772;27;45456;-46
2022/05/04 04:13:58;;;;;;;;;43.00;35.25;;;;;13.76;57.10;101482.44;5120477;27;45448;-40
2022/05/04 04:16:23;;;;;;;;;27.00;19.25;;;;;13.73;56.39;101475.53;5120389;27;45520;-40
2022/05/04 04:18:48;;;;;;;;;36.00;28.50;;;;;13.54;56.75;101448.94;5120397;27;45370;-40
2022/05/04 04:23:58;;;;;;;;;46.75;31.25;;;;;13.58;57.03;101477.91;5120166;27;45320;-40
2022/05/04 04:26:23;;;;;;;;;37.00;27.75;;;;;13.57;56.61;101486.91;5120235;27;45356;-43
2022/05/04 04:28:49;;;;;;;;;36.25;28.00;;;;;13.55;57.27;101480.84;5120543;27;45403;-41
2022/05/04 04:31:14;;;;;;;;;41.50;32.50;;;;;13.56;57.33;101479.03;5120599;27;45539;-44
2022/05/04 04:33:40;;;;;;;;;36.75;30.50;;;;;13.47;56.79;101478.06;5119973;27;45545;-51
2022/05/04 04:36:05;;;;;;;;;40.00;31.75;;;;;13.53;57.43;101490.88;5120423;27;45248;-42
2022/05/04 04:38:31;;;;;;;;;45.25;33.25;;;;;13.47;57.29;101484.25;5119047;27;45311;-40
2022/05/04 04:40:58;;;;;;;;;31.50;27.75;;;;;13.44;57.08;101475.69;5120197;27;45320;-45
2022/05/04 04:43:23;;;;;;;;;36.75;29.00;;;;;13.54;56.51;101489.03;5119159;27;45582;-43
2022/05/04 04:45:50;;;;;;;;;35.00;28.25;;;;;13.53;57.57;101498.88;5119970;27;45278;-41
2022/05/04 04:48:16;;;;;;;;;36.50;30.00;;;;;13.54;57.06;101491.72;5120115;27;45319;-44
2022/05/04 04:50:45;;;;;;;;;36.00;29.25;;;;;13.53;56.93;101492.69;5120067;27;45525;-46
2022/05/04 04:53:10;;;;;;;;;32.25;26.25;;;;;13.53;56.61;101493.53;5119323;27;47127;-42
2022/05/04 04:55:36;;;;;;;;;37.75;31.00;;;;;13.53;56.52;101496.22;5119755;27;45314;-41
2022/05/04 04:58:02;;;;;;;;;47.00;32.25;;;;;13.54;57.31;101500.56;5119721;27;45278;-41
2022/05/04 05:00:28;;;;;;;;;40.50;32.25;;;;;13.47;56.90;101491.44;5120175;27;45252;-41
2022/05/04 05:02:54;;;;;;;;;41.50;22.25;;;;;13.44;57.07;101479.22;5119519;27;45383;-42
2022/05/04 05:05:19;;;;;;;;;49.50;35.00;;;;;13.55;56.93;101496.91;5119314;27;45207;-48
2022/05/04 05:07:45;;;;;;;;;36.25;30.25;;;;;13.44;57.04;101478.38;5119808;27;45362;-43
2022/05/04 05:10:10;;;;;;;;;36.75;27.75;;;;;13.57;57.23;101496.72;5119761;27;45368;-43
2022/05/04 05:12:35;;;;;;;;;37.50;31.75;;;;;13.57;56.80;101497.59;5119161;27;46158;-41
2022/05/04 05:17:45;;;;;;;;;35.75;28.25;;;;;13.55;56.44;101504.06;5119444;27;45374;-41
2022/05/04 05:20:11;;;;;;;;;30.25;26.25;;;;;13.42;56.46;101491.03;5119650;27;45528;-45
2022/05/04 05:22:37;;;;;;;;;38.00;29.50;;;;;13.56;56.58;101513.78;5119362;27;45455;-43
2022/05/04 05:25:03;;;;;;;;;38.25;31.00;;;;;13.43;56.56;101495.41;5119166;27;45327;-43
2022/05/04 05:27:32;;;;;;;;;32.25;29.25;;;;;13.52;57.18;101504.34;5119561;27;45455;-41
2022/05/04 05:29:58;;;;;;;;;41.25;28.50;;;;;13.48;56.45;101506.47;5119453;27;45521;-42
2022/05/04 05:32:23;;;;;;;;;37.75;29.50;;;;;13.41;57.03;101506.25;5119013;27;45332;-45
2022/05/04 05:34:49;;;;;;;;;37.25;27.25;;;;;13.40;57.36;101509.03;5118394;27;45388;-49
2022/05/04 05:37:14;;;;;;;;;43.50;31.75;;;;;13.53;57.03;101508.75;5119154;27;45352;-41
2022/05/04 05:39:40;;;;;;;;;40.25;26.00;;;;;13.61;56.76;101517.72;5119051;27;45538;-50
2022/05/04 05:42:07;;;;;;;;;32.50;29.00;;;;;13.75;56.81;101512.84;5119023;27;46321;-53
2022/05/04 05:44:32;;;;;;;;;40.25;33.25;;;;;13.83;56.66;101513.78;5118742;27;45334;-43
2022/05/04 05:46:58;;;;;;;;;35.75;29.50;;;;;13.93;56.51;101511.06;5119152;27;45720;-40
2022/05/04 05:49:23;;;;;;;;;30.50;27.25;;;;;13.96;55.86;101516.94;5119052;27;45397;-50
2022/05/04 05:51:49;;;;;;;;;36.00;26.00;;;;;14.00;55.96;101506.78;5118755;27;46258;-41
2022/05/04 05:54:14;;;;;;;;;40.50;29.25;;;;;14.01;55.54;101510.31;5118559;27;45430;-42
2022/05/04 05:56:40;;;;;;;;;45.75;32.25;;;;;14.07;55.93;101512.38;5119047;27;45504;-44
2022/05/04 05:59:05;;;;;;;;;35.00;31.50;;;;;14.13;55.54;101517.97;5118765;27;45373;-44
2022/05/04 06:01:30;;;;;;;;;33.00;31.50;;;;;14.21;55.47;101533.28;5118699;27;45993;-43
2022/05/04 06:03:56;;;;;;;;;40.00;34.25;;;;;14.28;55.42;101530.81;5117211;27;45448;-51
2022/05/04 06:06:21;;;;;;;;;37.00;31.00;;;;;14.33;54.81;101528.56;5119065;27;45250;-42
2022/05/04 06:08:46;;;;;;;;;37.25;30.50;;;;;14.37;55.01;101537.97;5117735;27;45392;-47
2022/05/04 06:11:12;;;;;;;;;41.75;31.25;;;;;14.30;55.00;101529.69;5118716;27;46254;-41
2022/05/04 06:13:37;;;;;;;;;34.25;30.25;;;;;14.31;55.09;101525.16;5118441;27;45349;-55
2022/05/04 06:16:03;;;;;;;;;41.75;30.00;;;;;14.29;54.91;101528.00;5118775;27;45332;-44
2022/05/04 06:18:28;;;;;;;;;46.00;33.00;;;;;14.23;54.97;101516.06;5117780;27;45592;-49
2022/05/04 06:20:54;;;;;;;;;36.50;31.50;;;;;14.20;55.05;101532.44;5118418;27;46271;-45
2022/05/04 06:23:19;;;;;;;;;43.50;34.25;;;;;14.16;54.78;101533.72;5118511;27;45298;-51
2022/05/04 06:25:45;;;;;;;;;34.25;28.00;;;;;14.17;55.44;101550.63;5118186;27;45292;-43
2022/05/04 06:28:12;;;;;;;;;43.25;29.25;;;;;14.13;54.49;101549.25;5118749;27;45324;-48
2022/05/04 06:36:05;;;;;;;;;34.75;26.00;;;;;14.12;54.60;101556.44;5118301;27;45354;-42
2022/05/04 06:38:31;;;;;;;;;30.25;30.00;;;;;14.14;54.82;101557.09;5118567;27;45419;-44
2022/05/04 06:40:57;;;;;;;;;46.25;30.50;;;;;14.15;54.29;101552.59;5117996;27;46838;-53
2022/05/04 06:43:23;;;;;;;;;42.00;30.75;;;;;14.08;54.76;101536.31;5118230;27;45487;-46
2022/05/04 06:45:48;;;;;;;;;46.50;33.25;;;;;14.18;54.78;101549.63;5118379;27;45404;-46
2022/05/04 06:48:14;;;;;;;;;33.25;29.50;;;;;14.21;54.28;101544.81;5118394;27;45429;-55
2022/05/04 06:50:39;;;;;;;;;34.00;28.00;;;;;14.27;54.83;101548.72;5117995;27;46221;-42
2022/05/04 06:53:05;;;;;;;;;42.00;31.75;;;;;14.30;54.64;101537.72;5118123;27;45460;-53
2022/05/04 06:55:30;;;;;;;;;31.75;24.75;;;;;14.31;54.73;101544.75;5116832;27;45360;-48
2022/05/04 06:57:55;;;;;;;;;40.00;32.00;;;;;14.36;54.45;101541.63;5118343;27;45270;-56
2022/05/04 07:00:21;;;;;;;;;38.50;34.00;;;;;14.47;54.63;101554.78;5117972;27;47218;-40
2022/05/04 07:02:46;;;;;;;;;40.25;30.75;;;;;14.54;54.30;101555.91;5120846;27;45223;-48
2022/05/04 07:05:12;;;;;;;;;44.00;30.25;;;;;14.68;54.01;101554.50;5121930;27;45376;-41
2022/05/04 07:07:38;;;;;;;;;36.25;32.25;;;;;14.78;53.37;101539.19;5122171;27;45314;-46
2022/05/04 07:10:03;;;;;;;;;39.50;33.00;;;;;14.97;53.27;101556.94;5121750;27;46256;-43
2022/05/04 07:12:29;;;;;;;;;36.25;29.00;;;;;15.12;52.93;101557.19;5122131;27;45287;-41
2022/05/04 07:14:56;;;;;;;;;40.25;31.00;;;;;15.29;52.68;101555.47;5121784;27;45282;-50
2022/05/04 07:17:25;;;;;;;;;39.75;32.00;;;;;15.39;52.36;101557.06;5121866;27;45528;-40
2022/05/04 07:19:50;;;;;;;;;41.33;30.33;;;;;15.36;52.08;101546.66;5121295;27;45445;-47
2022/05/04 07:22:16;;;;;;;;;42.33;29.00;;;;;15.35;51.89;101547.66;5121375;27;45464;-54
2022/05/04 07:24:41;;;;;;;;;31.33;30.00;;;;;15.48;52.00;101556.09;5121386;27;45349;-39
2022/05/04 07:27:07;;;;;;;;;38.33;34.67;;;;;15.51;51.94;101564.84;5121488;27;45764;-53
2022/05/04 07:29:36;;;;;;;;;42.33;30.33;;;;;15.46;51.80;101558.13;5120027;27;46290;-38
2022/05/04 07:32:02;;;;;;;;;45.67;30.33;;;;;15.67;51.96;101571.19;5121252;27;45361;-39
2022/05/04 07:34:27;;;;;;;;;36.33;29.67;;;;;15.79;51.39;101570.88;5121322;27;45294;-47
2022/05/04 07:36:53;;;;;;;;;42.67;33.33;;;;;16.03;51.44;101575.50;5121251;27;45313;-43
2022/05/04 07:44:50;;;;;;;;;42.67;30.00;;;;;20.76;42.27;101567.38;5121211;27;45341;-54
2022/05/04 07:47:16;;;;;;;;;40.00;32.33;;;;;22.04;39.49;101566.19;5121475;27;45253;-52
2022/05/04 07:49:41;;;;;;;;;33.67;29.33;;;;;22.56;37.26;101561.16;5120835;27;47109;-51
2022/05/04 07:52:07;;;;;;;;;37.00;31.00;;;;;22.02;38.96;101557.41;5121178;27;45226;-38
2022/05/04 07:54:32;;;;;;;;;40.67;32.33;;;;;22.12;39.89;101554.31;5120880;27;45365;-46
2022/05/04 07:56:57;;;;;;;;;41.33;33.33;;;;;21.56;39.51;101563.44;5102256;27;45322;-54
2022/05/04 07:59:23;;;;;;;;;42.33;32.00;;;;;21.13;41.31;101571.63;5120666;27;45330;-39
2022/05/04 08:04:34;;;;;;;;;43.33;33.00;;;;;20.87;40.63;101553.34;5120894;27;45312;-56
2022/05/04 08:07:00;;;;;;;;;42.00;35.00;;;;;21.27;39.80;101555.50;5120740;27;45437;-54
2022/05/04 08:09:26;;;;;;;;;41.67;35.00;;;;;21.34;40.26;101564.53;5120529;27;46603;-46
2022/05/04 08:11:51;;;;;;;;;41.00;32.67;;;;;21.30;40.31;101560.53;5120309;27;45418;-55
2022/05/04 08:14:16;;;;;;;;;48.00;35.00;;;;;21.26;40.18;101543.84;5119272;27;45264;-55
2022/05/04 08:16:42;;;;;;;;;46.33;36.00;;;;;21.79;39.54;101555.03;5120786;27;45313;-38
2022/05/04 08:19:07;;;;;;;;;44.00;34.33;;;;;21.45;38.80;101503.59;5119971;27;45413;-40
2022/05/04 08:21:34;;;;;;;;;48.67;34.33;;;;;21.61;38.89;101552.00;5120334;27;45526;-51
2022/05/04 08:24:00;;;;;;;;;44.33;35.00;;;;;21.35;39.93;101560.78;5120680;27;45330;-54
2022/05/04 08:26:28;;;;;;;;;43.00;33.33;;;;;21.38;39.93;101569.38;5120500;27;45248;-52
2022/05/04 08:28:53;;;;;;;;;27.00;24.33;;;;;21.61;39.52;101569.06;5119997;27;45374;-53
2022/05/04 08:31:21;;;;;;;;;40.33;31.00;;;;;21.56;39.33;101566.13;5120131;27;45181;-54
2022/05/04 08:33:47;;;;;;;;;46.00;34.33;;;;;21.63;39.36;101564.31;5120107;27;45423;-54
2022/05/04 08:36:12;;;;;;;;;46.00;35.33;;;;;21.60;39.47;101567.41;5119620;27;45309;-50
2022/05/04 08:38:38;;;;;;;;;49.33;36.00;;;;;21.66;39.84;101566.63;5120113;27;45294;-53
2022/05/04 08:41:03;;;;;;;;;43.33;34.00;;;;;23.77;36.46;101567.19;5119870;27;45417;-40
2022/05/04 08:43:34;;;;;;;;;43.00;34.00;;;;;25.09;34.06;101554.72;5120362;27;45325;-41
2022/05/04 08:46:03;;;;;;;;;43.00;36.00;;;;;24.94;34.48;101554.16;5120336;27;45570;-51
2022/05/04 08:48:32;;;;;;;;;52.00;38.67;;;;;24.29;36.09;101554.41;5119698;27;45348;-54
2022/05/04 08:51:05;;;;;;;;;46.67;34.67;;;;;24.08;36.27;101554.72;5120038;27;45231;-54
2022/05/04 08:53:31;;;;;;;;;47.67;35.00;;;;;27.00;31.73;101535.25;5120033;27;45468;-45
2022/05/04 08:55:57;;;;;;;;;46.00;38.00;;;;;26.45;31.96;101541.81;5119818;27;45437;-52
2022/05/04 08:58:22;;;;;;;;;46.67;37.67;;;;;27.83;30.31;101556.03;5119369;27;45286;-43
2022/05/04 09:00:47;;;;;;;;;43.00;35.00;;;;;29.18;28.03;101556.31;5119811;27;45234;-41
2022/05/04 09:03:13;;;;;;;;;50.00;37.00;;;;;30.73;26.54;101550.53;5119931;27;45391;-40
2022/05/04 09:05:45;;;;;;;;;47.00;37.00;;;;;29.81;26.26;101553.09;5120075;27;45261;-51
2022/05/04 09:08:10;;;;;;;;;42.33;34.00;;;;;28.57;28.33;101556.97;5119137;27;45382;-45
2022/05/04 09:10:43;;;;;;;;;43.33;35.00;;;;;27.69;29.92;101554.63;5119685;27;45390;-52
2022/05/04 09:13:10;;;;;;;;;40.00;33.67;;;;;27.59;30.66;101563.41;5119581;27;45371;-53
2022/05/04 09:15:42;;;;;;;;;43.00;34.00;;;;;26.96;30.51;101562.22;5119719;27;45292;-40
2022/05/04 09:18:10;;;;;;;;;42.00;32.33;;;;;26.75;31.13;101566.31;5119517;27;45361;-52
2022/05/04 09:20:49;;;;;;;;;41.00;32.00;;;;;26.15;31.46;101562.78;5119412;27;45463;-40
2022/05/04 09:23:18;;;;;;;;;45.33;35.00;;;;;25.46;32.02;101562.94;5119693;27;45303;-47
2022/05/04 09:25:44;;;;;;;;;35.00;32.33;;;;;24.88;33.73;101569.50;5119060;27;45318;-46
2022/05/04 09:28:14;;;;;;;;;47.33;35.33;;;;;24.37;33.54;101575.06;5119167;27;45553;-51
2022/05/04 09:30:51;;;;;;;;;47.33;34.67;;;;;24.80;33.07;101566.22;5119255;27;45259;-41
2022/05/04 09:33:21;;;;;;;;;43.00;32.67;;;;;25.67;31.85;101558.13;5119145;27;45238;-39
2022/05/04 09:35:47;;;;;;;;;43.33;34.33;;;;;25.71;32.09;101538.34;5119662;27;45381;-52
2022/05/04 09:46:46;;;;;;;;;45.00;34.33;;;;;26.59;30.30;101550.66;5119398;27;45372;-40
2022/05/04 09:49:16;;;;;;;;;45.67;33.33;;;;;26.13;30.55;101546.66;5118756;27;46260;-39
2022/05/04 09:51:51;;;;;;;;;42.33;35.67;;;;;25.56;31.79;101549.63;5119029;27;45414;-38
2022/05/04 09:54:30;;;;;;;;;35.67;30.00;;;;;25.09;31.97;101551.16;5119086;27;45375;-39
2022/05/04 09:57:06;;;;;;;;;36.00;30.33;;;;;24.68;33.43;101544.34;5119167;27;45307;-39
2022/05/04 09:59:35;;;;;;;;;39.67;33.00;;;;;24.51;32.87;101543.19;5118222;27;47037;-45
2022/05/04 10:02:03;;;;;;;;;37.33;26.33;;;;;24.83;32.23;101544.03;5118737;27;45343;-42
2022/05/04 10:04:32;;;;;;;;;32.33;31.00;;;;;24.89;32.39;101534.97;5119010;27;45336;-48
2022/05/04 10:07:00;;;;;;;;;37.33;29.33;;;;;24.64;32.41;101545.81;5119008;27;45511;-53
2022/05/04 10:09:26;;;;;;;;;36.33;29.67;;;;;24.37;33.37;101545.16;5118577;27;45346;-51
2022/05/04 10:11:59;;;;;;;;;39.00;31.00;;;;;24.32;32.94;101540.38;5116898;27;45523;-47
2022/05/04 10:14:28;;;;;;;;;36.00;29.33;;;;;24.38;32.98;101536.78;5118405;27;45378;-51
2022/05/04 10:17:04;;;;;;;;;33.33;30.00;;;;;24.43;33.14;101541.56;5118871;27;45366;-44
2022/05/04 10:19:47;;;;;;;;;39.00;29.67;;;;;24.60;33.04;101539.16;5118619;27;45774;-54
2022/05/04 10:22:26;;;;;;;;;36.67;29.00;;;;;25.65;31.87;101541.97;5118402;27;45400;-51
2022/05/04 10:24:56;;;;;;;;;30.67;27.67;;;;;26.00;31.80;101530.47;5118548;27;45432;-52
2022/05/04 10:27:23;;;;;;;;;30.00;26.00;;;;;26.83;30.40;101535.97;5118547;27;45331;-50
2022/05/04 10:30:31;;;;;;;;;37.67;30.33;;;;;28.43;29.42;101533.69;5118444;27;46105;-50
2022/05/04 10:33:01;;;;;;;;;33.33;28.33;;;;;30.83;25.46;101527.81;5118156;27;45405;-51
2022/05/04 10:35:48;;;;;;;;;30.50;25.00;;;;;31.40;24.30;101538.13;5118191;27;45372;-40
2022/05/04 10:38:18;;;;;;;;;34.00;26.25;;;;;31.53;24.05;101540.38;5118345;27;45358;-42
2022/05/04 10:40:43;;;;;;;;;25.25;25.00;;;;;31.68;23.80;101548.69;5117772;27;45700;-50
2022/05/04 10:43:16;;;;;;;;;25.75;23.00;;;;;33.10;23.50;101540.97;5117214;27;45287;-52
2022/05/04 10:45:43;;;;;;;;;31.75;24.75;;;;;34.39;20.60;101532.69;5118465;27;45297;-55
2022/05/04 10:48:17;;;;;;;;;28.50;21.50;;;;;35.51;21.02;101546.63;5118604;27;45303;-39
2022/05/04 10:51:11;;;;;;;;;22.00;20.60;;;;;37.18;19.79;101545.19;5117544;27;46278;-39
2022/05/04 10:53:45;;;;;;;;;22.80;19.60;;;;;38.41;17.25;101538.69;5034203;28;45348;-40
2022/05/04 10:56:16;;;;;;;;;28.60;23.20;;;;;39.18;17.37;101539.47;5034328;28;45401;-47
2022/05/04 10:58:46;;;;;;;;;26.20;20.60;;;;;40.09;17.02;101546.28;5034267;28;45472;-53
2022/05/04 11:01:20;;;;;;;;;25.40;21.40;;;;;41.12;16.70;101545.31;5034330;28;46043;-41
2022/05/04 11:04:13;;;;;;;;;22.20;20.20;;;;;41.91;18.10;101537.38;5034141;28;45348;-54
2022/05/04 11:07:06;;;;;;;;;23.80;21.40;;;;;41.10;15.65;101530.09;4955344;28;45771;-53
2022/05/04 11:09:39;;;;;;;;;22.40;18.40;;;;;41.31;15.22;101527.34;4954258;28;45543;-55
2022/05/04 11:12:08;;;;;;;;;23.80;20.00;;;;;40.01;16.22;101530.38;4955287;28;46466;-48
2022/05/04 11:14:34;;;;;;;;;22.80;17.80;;;;;37.86;17.86;101522.19;4955195;28;45421;-46
2022/05/04 11:17:01;;;;;;;;;19.20;17.00;;;;;36.02;18.45;101529.34;4955312;28;45429;-43
2022/05/04 11:19:29;;;;;;;;;25.20;17.60;;;;;34.37;19.11;101526.63;4955409;28;45259;-40
2022/05/04 11:21:56;;;;;;;;;21.80;20.00;;;;;32.87;20.84;101525.78;4955219;28;46266;-43
2022/05/04 11:24:25;;;;;;;;;23.60;20.40;;;;;31.50;22.62;101530.72;4955089;28;45421;-42
2022/05/04 11:26:51;;;;;;;;;24.20;21.40;;;;;30.19;23.36;101517.59;4955538;28;45387;-54
2022/05/04 11:29:24;;;;;;;;;26.60;21.60;;;;;29.22;24.80;101530.06;4971666;28;45817;-50
2022/05/04 11:31:56;;;;;;;;;26.50;23.75;;;;;28.45;26.17;101533.47;4993789;28;45402;-44
2022/05/04 11:34:31;;;;;;;;;26.60;22.20;;;;;27.68;27.03;101522.88;4994270;28;45288;-40
2022/05/04 11:37:01;;;;;;;;;27.75;20.00;;;;;27.05;27.30;101517.13;4994502;28;45387;-49
2022/05/04 11:39:29;;;;;;;;;27.25;21.25;;;;;26.43;28.49;101524.00;4994665;28;45501;-49
2022/05/04 11:41:56;;;;;;;;;21.50;20.00;;;;;25.89;28.84;101523.91;4977445;28;46723;-38